sensor_id;sensor_type;location;lat;lon;timestamp;pressure;altitude;pressure_sealevel;temperature;humidity
35507;BME280;36461;52.018;21.036;2023-10-13T00:02:04;100357.27;;;7.47;95.32
35507;BME280;36461;52.018;21.036;2023-10-13T00:04:34;100359.41;;;7.51;95.23
35507;BME280;36461;52.018;21.036;2023-10-13T00:07:04;100350.77;;;7.53;95.33
35507;BME280;36461;52.018;21.036;2023-10-13T00:09:37;100348.02;;;7.53;95.18
35507;BME280;36461;52.018;21.036;2023-10-13T00:12:06;100344.61;;;7.51;95.25
35507;BME280;36461;52.018;21.036;2023-10-13T00:14:41;100342.42;;;7.49;95.09
35507;BME280;36461;52.018;21.036;2023-10-13T00:17:13;100344.55;;;7.45;95.11
35507;BME280;36461;52.018;21.036;2023-10-13T00:19:48;100350.10;;;7.44;95.20
35507;BME280;36461;52.018;21.036;2023-10-13T00:22:21;100354.58;;;7.44;95.26
35507;BME280;36461;52.018;21.036;2023-10-13T00:24:51;100358.48;;;7.46;95.47
35507;BME280;36461;52.018;21.036;2023-10-13T00:27:26;100347.27;;;7.47;95.40
35507;BME280;36461;52.018;21.036;2023-10-13T00:30:00;100348.73;;;7.52;95.75
35507;BME280;36461;52.018;21.036;2023-10-13T00:32:49;100353.74;;;7.60;96.15
35507;BME280;36461;52.018;21.036;2023-10-13T00:35:28;100357.20;;;7.67;96.25
35507;BME280;36461;52.018;21.036;2023-10-13T00:37:58;100355.05;;;7.71;96.16
35507;BME280;36461;52.018;21.036;2023-10-13T00:40:46;100360.79;;;7.77;96.26
35507;BME280;36461;52.018;21.036;2023-10-13T00:43:22;100357.82;;;7.79;96.01
35507;BME280;36461;52.018;21.036;2023-10-13T00:45:56;100354.16;;;7.81;96.10
35507;BME280;36461;52.018;21.036;2023-10-13T00:48:28;100357.13;;;7.87;96.36
35507;BME280;36461;52.018;21.036;2023-10-13T00:51:02;100358.71;;;7.93;96.52
35507;BME280;36461;52.018;21.036;2023-10-13T00:53:41;100364.26;;;8.01;96.66
35507;BME280;36461;52.018;21.036;2023-10-13T00:56:12;100358.32;;;8.04;96.44
35507;BME280;36461;52.018;21.036;2023-10-13T00:58:48;100355.66;;;8.07;96.55
35507;BME280;36461;52.018;21.036;2023-10-13T01:01:20;100358.98;;;8.13;96.66
35507;BME280;36461;52.018;21.036;2023-10-13T01:03:58;100361.94;;;8.19;96.79
35507;BME280;36461;52.018;21.036;2023-10-13T01:06:31;100362.04;;;8.22;96.67
35507;BME280;36461;52.018;21.036;2023-10-13T01:09:04;100362.15;;;8.26;96.83
35507;BME280;36461;52.018;21.036;2023-10-13T01:11:41;100364.18;;;8.27;97.13
35507;BME280;36461;52.018;21.036;2023-10-13T01:14:11;100366.16;;;8.31;97.10
35507;BME280;36461;52.018;21.036;2023-10-13T01:16:40;100369.23;;;8.32;96.93
35507;BME280;36461;52.018;21.036;2023-10-13T01:19:16;100371.27;;;8.33;97.02
35507;BME280;36461;52.018;21.036;2023-10-13T01:21:50;100375.39;;;8.34;96.97
35507;BME280;36461;52.018;21.036;2023-10-13T01:24:25;100377.73;;;8.38;97.15
35507;BME280;36461;52.018;21.036;2023-10-13T01:26:58;100379.85;;;8.42;97.51
35507;BME280;36461;52.018;21.036;2023-10-13T01:29:35;100379.11;;;8.46;97.47
35507;BME280;36461;52.018;21.036;2023-10-13T01:32:04;100383.30;;;8.51;97.63
35507;BME280;36461;52.018;21.036;2023-10-13T01:34:33;100383.49;;;8.57;97.68
35507;BME280;36461;52.018;21.036;2023-10-13T01:37:01;100376.67;;;8.62;97.62
35507;BME280;36461;52.018;21.036;2023-10-13T01:39:34;100368.96;;;8.67;97.70
35507;BME280;36461;52.018;21.036;2023-10-13T01:42:02;100377.84;;;8.71;97.93
35507;BME280;36461;52.018;21.036;2023-10-13T01:44:30;100379.27;;;8.75;98.15
35507;BME280;36461;52.018;21.036;2023-10-13T01:47:01;100380.88;;;8.80;98.20
35507;BME280;36461;52.018;21.036;2023-10-13T01:49:34;100383.36;;;8.85;98.15
35507;BME280;36461;52.018;21.036;2023-10-13T01:52:16;100380.49;;;8.89;98.13
35507;BME280;36461;52.018;21.036;2023-10-13T01:54:46;100377.66;;;8.92;98.22
35507;BME280;36461;52.018;21.036;2023-10-13T01:57:17;100378.38;;;8.98;98.68
35507;BME280;36461;52.018;21.036;2023-10-13T01:59:47;100373.44;;;9.02;98.73
35507;BME280;36461;52.018;21.036;2023-10-13T02:02:18;100374.39;;;9.05;98.78
35507;BME280;36461;52.018;21.036;2023-10-13T02:04:58;100371.34;;;9.10;98.79
35507;BME280;36461;52.018;21.036;2023-10-13T02:07:30;100375.82;;;9.16;99.00
35507;BME280;36461;52.018;21.036;2023-10-13T02:10:00;100372.25;;;9.20;99.02
35507;BME280;36461;52.018;21.036;2023-10-13T02:12:32;100372.01;;;9.23;98.96
35507;BME280;36461;52.018;21.036;2023-10-13T02:15:13;100375.90;;;9.26;99.11
35507;BME280;36461;52.018;21.036;2023-10-13T02:17:54;100374.89;;;9.32;99.36
35507;BME280;36461;52.018;21.036;2023-10-13T02:20:23;100373.09;;;9.35;99.45
35507;BME280;36461;52.018;21.036;2023-10-13T02:22:59;100372.30;;;9.38;99.67
35507;BME280;36461;52.018;21.036;2023-10-13T02:25:28;100380.30;;;9.42;99.76
35507;BME280;36461;52.018;21.036;2023-10-13T02:28:14;100371.05;;;9.46;99.61
35507;BME280;36461;52.018;21.036;2023-10-13T02:30:44;100373.08;;;9.48;99.63
35507;BME280;36461;52.018;21.036;2023-10-13T02:33:14;100375.21;;;9.51;99.86
35507;BME280;36461;52.018;21.036;2023-10-13T02:35:42;100376.84;;;9.55;99.97
35507;BME280;36461;52.018;21.036;2023-10-13T02:38:32;100374.99;;;9.59;99.93
35507;BME280;36461;52.018;21.036;2023-10-13T02:41:19;100374.09;;;9.61;99.71
35507;BME280;36461;52.018;21.036;2023-10-13T02:43:55;100370.92;;;9.63;99.83
35507;BME280;36461;52.018;21.036;2023-10-13T02:46:24;100373.49;;;9.64;99.58
35507;BME280;36461;52.018;21.036;2023-10-13T02:48:57;100368.30;;;9.64;99.59
35507;BME280;36461;52.018;21.036;2023-10-13T02:51:30;100369.64;;;9.65;99.64
35507;BME280;36461;52.018;21.036;2023-10-13T02:54:04;100373.52;;;9.68;99.71
35507;BME280;36461;52.018;21.036;2023-10-13T02:56:46;100380.33;;;9.72;99.93
35507;BME280;36461;52.018;21.036;2023-10-13T02:59:30;100382.54;;;9.74;99.89
35507;BME280;36461;52.018;21.036;2023-10-13T03:02:24;100382.69;;;9.74;99.90
35507;BME280;36461;52.018;21.036;2023-10-13T03:04:56;100376.30;;;9.74;99.96
35507;BME280;36461;52.018;21.036;2023-10-13T03:07:28;100379.93;;;9.73;99.89
35507;BME280;36461;52.018;21.036;2023-10-13T03:09:59;100382.73;;;9.73;99.70
35507;BME280;36461;52.018;21.036;2023-10-13T03:12:39;100378.21;;;9.68;99.53
35507;BME280;36461;52.018;21.036;2023-10-13T03:15:08;100378.77;;;9.60;99.43
35507;BME280;36461;52.018;21.036;2023-10-13T03:17:42;100377.61;;;9.52;99.15
35507;BME280;36461;52.018;21.036;2023-10-13T03:20:15;100373.94;;;9.48;99.35
35507;BME280;36461;52.018;21.036;2023-10-13T03:22:48;100375.23;;;9.45;99.38
35507;BME280;36461;52.018;21.036;2023-10-13T03:25:20;100372.87;;;9.42;99.70
35507;BME280;36461;52.018;21.036;2023-10-13T03:27:58;100366.23;;;9.39;99.43
35507;BME280;36461;52.018;21.036;2023-10-13T03:30:29;100363.40;;;9.35;99.42
35507;BME280;36461;52.018;21.036;2023-10-13T03:33:05;100358.95;;;9.27;99.38
35507;BME280;36461;52.018;21.036;2023-10-13T03:35:57;100352.51;;;9.16;99.09
35507;BME280;36461;52.018;21.036;2023-10-13T03:38:34;100355.64;;;9.09;99.15
35507;BME280;36461;52.018;21.036;2023-10-13T03:41:04;100354.48;;;9.01;98.99
35507;BME280;36461;52.018;21.036;2023-10-13T03:43:36;100354.34;;;8.93;99.04
35507;BME280;36461;52.018;21.036;2023-10-13T03:46:15;100358.85;;;8.85;99.01
35507;BME280;36461;52.018;21.036;2023-10-13T03:48:49;100358.16;;;8.78;99.23
35507;BME280;36461;52.018;21.036;2023-10-13T03:51:22;100365.17;;;8.73;99.18
35507;BME280;36461;52.018;21.036;2023-10-13T03:53:59;100373.13;;;8.66;98.68
35507;BME280;36461;52.018;21.036;2023-10-13T03:56:28;100380.59;;;8.57;98.24
35507;BME280;36461;52.018;21.036;2023-10-13T03:59:08;100378.92;;;8.47;98.35
35507;BME280;36461;52.018;21.036;2023-10-13T04:01:43;100380.28;;;8.39;98.32
35507;BME280;36461;52.018;21.036;2023-10-13T04:04:12;100368.90;;;8.32;98.42
35507;BME280;36461;52.018;21.036;2023-10-13T04:06:43;100368.15;;;8.27;98.61
35507;BME280;36461;52.018;21.036;2023-10-13T04:09:21;100376.51;;;8.23;98.82
35507;BME280;36461;52.018;21.036;2023-10-13T04:12:00;100383.34;;;8.18;98.57
35507;BME280;36461;52.018;21.036;2023-10-13T04:14:49;100384.91;;;8.09;98.38
35507;BME280;36461;52.018;21.036;2023-10-13T04:17:24;100381.50;;;8.00;98.10
35507;BME280;36461;52.018;21.036;2023-10-13T04:19:56;100378.73;;;7.93;98.03
35507;BME280;36461;52.018;21.036;2023-10-13T04:22:36;100381.93;;;7.87;98.30
35507;BME280;36461;52.018;21.036;2023-10-13T04:25:27;100381.34;;;7.83;98.21
35507;BME280;36461;52.018;21.036;2023-10-13T04:28:13;100381.29;;;7.77;98.08
35507;BME280;36461;52.018;21.036;2023-10-13T04:30:46;100386.07;;;7.71;97.95
35507;BME280;36461;52.018;21.036;2023-10-13T04:33:34;100391.66;;;7.67;98.25
35507;BME280;36461;52.018;21.036;2023-10-13T04:36:07;100392.77;;;7.64;98.21
35507;BME280;36461;52.018;21.036;2023-10-13T04:38:59;100384.59;;;7.58;98.13
35507;BME280;36461;52.018;21.036;2023-10-13T04:41:40;100382.06;;;7.56;98.20
35507;BME280;36461;52.018;21.036;2023-10-13T04:44:26;100381.55;;;7.55;98.69
35507;BME280;36461;52.018;21.036;2023-10-13T04:47:16;100380.52;;;7.55;98.69
35507;BME280;36461;52.018;21.036;2023-10-13T04:49:50;100381.02;;;7.56;98.80
35507;BME280;36461;52.018;21.036;2023-10-13T04:52:20;100377.13;;;7.61;99.10
35507;BME280;36461;52.018;21.036;2023-10-13T04:55:19;100369.55;;;7.70;99.65
35507;BME280;36461;52.018;21.036;2023-10-13T04:58:19;100369.02;;;7.79;99.92
35507;BME280;36461;52.018;21.036;2023-10-13T05:01:03;100375.08;;;7.85;99.92
35507;BME280;36461;52.018;21.036;2023-10-13T05:03:57;100382.04;;;7.90;99.85
35507;BME280;36461;52.018;21.036;2023-10-13T05:06:38;100382.63;;;7.95;99.91
35507;BME280;36461;52.018;21.036;2023-10-13T05:09:13;100386.81;;;8.01;100.00
35507;BME280;36461;52.018;21.036;2023-10-13T05:11:59;100387.86;;;8.09;100.00
35507;BME280;36461;52.018;21.036;2023-10-13T05:14:47;100385.89;;;8.20;100.00
35507;BME280;36461;52.018;21.036;2023-10-13T05:17:33;100380.29;;;8.31;100.00
35507;BME280;36461;52.018;21.036;2023-10-13T05:20:40;100377.80;;;8.42;100.00
35507;BME280;36461;52.018;21.036;2023-10-13T05:23:27;100374.73;;;8.49;100.00
35507;BME280;36461;52.018;21.036;2023-10-13T05:26:14;100375.76;;;8.57;100.00
35507;BME280;36461;52.018;21.036;2023-10-13T05:29:01;100373.42;;;8.67;100.00
35507;BME280;36461;52.018;21.036;2023-10-13T05:31:56;100379.21;;;8.78;100.00
35507;BME280;36461;52.018;21.036;2023-10-13T05:34:43;100385.42;;;8.85;100.00
35507;BME280;36461;52.018;21.036;2023-10-13T05:37:30;100385.60;;;8.92;100.00
35507;BME280;36461;52.018;21.036;2023-10-13T05:40:17;100389.71;;;9.00;100.00
35507;BME280;36461;52.018;21.036;2023-10-13T05:43:04;100390.71;;;9.08;100.00
35507;BME280;36461;52.018;21.036;2023-10-13T05:45:51;100394.77;;;9.17;100.00
35507;BME280;36461;52.018;21.036;2023-10-13T05:48:42;100394.47;;;9.23;100.00
35507;BME280;36461;52.018;21.036;2023-10-13T05:51:30;100403.97;;;9.29;100.00
35507;BME280;36461;52.018;21.036;2023-10-13T05:54:11;100407.34;;;9.39;100.00
35507;BME280;36461;52.018;21.036;2023-10-13T05:59:36;100402.57;;;9.55;100.00
35507;BME280;36461;52.018;21.036;2023-10-13T06:02:23;100406.80;;;9.65;100.00
35507;BME280;36461;52.018;21.036;2023-10-13T06:05:12;100422.41;;;9.75;100.00
35507;BME280;36461;52.018;21.036;2023-10-13T06:07:59;100431.13;;;9.85;100.00
35507;BME280;36461;52.018;21.036;2023-10-13T06:10:49;100429.90;;;9.92;100.00
35507;BME280;36461;52.018;21.036;2023-10-13T06:13:36;100428.35;;;9.98;100.00
35507;BME280;36461;52.018;21.036;2023-10-13T06:16:22;100428.02;;;10.03;100.00
35507;BME280;36461;52.018;21.036;2023-10-13T06:19:10;100436.88;;;10.13;100.00
35507;BME280;36461;52.018;21.036;2023-10-13T06:21:56;100437.03;;;10.20;100.00
35507;BME280;36461;52.018;21.036;2023-10-13T06:24:44;100437.89;;;10.26;100.00
35507;BME280;36461;52.018;21.036;2023-10-13T06:27:31;100443.41;;;10.32;100.00
35507;BME280;36461;52.018;21.036;2023-10-13T06:30:18;100442.05;;;10.38;100.00
35507;BME280;36461;52.018;21.036;2023-10-13T06:32:48;100441.55;;;10.44;100.00
35507;BME280;36461;52.018;21.036;2023-10-13T06:35:18;100447.27;;;10.49;100.00
35507;BME280;36461;52.018;21.036;2023-10-13T06:37:47;100451.93;;;10.55;100.00
35507;BME280;36461;52.018;21.036;2023-10-13T06:40:15;100455.01;;;10.61;100.00
35507;BME280;36461;52.018;21.036;2023-10-13T06:42:49;100458.25;;;10.69;100.00
35507;BME280;36461;52.018;21.036;2023-10-13T06:45:17;100456.11;;;10.76;100.00
35507;BME280;36461;52.018;21.036;2023-10-13T06:47:46;100456.05;;;10.83;100.00
35507;BME280;36461;52.018;21.036;2023-10-13T06:50:15;100457.73;;;10.91;100.00
35507;BME280;36461;52.018;21.036;2023-10-13T06:52:47;100459.09;;;10.97;100.00
35507;BME280;36461;52.018;21.036;2023-10-13T06:55:16;100462.63;;;11.05;100.00
35507;BME280;36461;52.018;21.036;2023-10-13T06:58:08;100466.80;;;11.15;100.00
35507;BME280;36461;52.018;21.036;2023-10-13T07:00:42;100462.30;;;11.20;100.00
35507;BME280;36461;52.018;21.036;2023-10-13T07:03:22;100460.76;;;11.25;100.00
35507;BME280;36461;52.018;21.036;2023-10-13T07:05:51;100460.35;;;11.32;100.00
35507;BME280;36461;52.018;21.036;2023-10-13T07:08:20;100461.27;;;11.40;100.00
35507;BME280;36461;52.018;21.036;2023-10-13T07:10:52;100464.03;;;11.46;100.00
35507;BME280;36461;52.018;21.036;2023-10-13T07:13:31;100469.13;;;11.48;100.00
35507;BME280;36461;52.018;21.036;2023-10-13T07:16:07;100469.92;;;11.51;100.00
35507;BME280;36461;52.018;21.036;2023-10-13T07:18:57;100466.89;;;11.53;100.00
35507;BME280;36461;52.018;21.036;2023-10-13T07:21:33;100471.11;;;11.56;100.00
35507;BME280;36461;52.018;21.036;2023-10-13T07:24:01;100465.08;;;11.56;99.99
35507;BME280;36461;52.018;21.036;2023-10-13T07:26:39;100467.34;;;11.55;99.97
35507;BME280;36461;52.018;21.036;2023-10-13T07:29:14;100467.08;;;11.53;99.80
35507;BME280;36461;52.018;21.036;2023-10-13T07:31:43;100465.94;;;11.50;99.81
35507;BME280;36461;52.018;21.036;2023-10-13T07:34:13;100465.44;;;11.50;99.69
35507;BME280;36461;52.018;21.036;2023-10-13T07:36:53;100460.60;;;11.55;100.00
35507;BME280;36461;52.018;21.036;2023-10-13T07:39:28;100459.57;;;11.65;100.00
35507;BME280;36461;52.018;21.036;2023-10-13T07:41:56;100459.70;;;11.80;100.00
35507;BME280;36461;52.018;21.036;2023-10-13T07:44:35;100458.18;;;11.94;100.00
35507;BME280;36461;52.018;21.036;2023-10-13T07:47:08;100453.82;;;12.05;99.94
35507;BME280;36461;52.018;21.036;2023-10-13T07:49:38;100448.45;;;12.18;99.99
35507;BME280;36461;52.018;21.036;2023-10-13T07:52:10;100445.91;;;12.31;99.92
35507;BME280;36461;52.018;21.036;2023-10-13T07:54:49;100446.34;;;12.42;99.72
35507;BME280;36461;52.018;21.036;2023-10-13T07:57:27;100442.65;;;12.52;99.52
35507;BME280;36461;52.018;21.036;2023-10-13T07:59:58;100441.61;;;12.56;99.20
35507;BME280;36461;52.018;21.036;2023-10-13T08:02:58;100438.59;;;12.62;99.12
35507;BME280;36461;52.018;21.036;2023-10-13T08:06:00;100437.54;;;12.67;98.49
35507;BME280;36461;52.018;21.036;2023-10-13T08:08:35;100435.36;;;12.65;98.33
35507;BME280;36461;52.018;21.036;2023-10-13T08:11:11;100435.48;;;12.67;98.45
35507;BME280;36461;52.018;21.036;2023-10-13T08:13:39;100431.92;;;12.73;98.65
35507;BME280;36461;52.018;21.036;2023-10-13T08:16:30;100423.48;;;12.84;98.78
35507;BME280;36461;52.018;21.036;2023-10-13T08:19:17;100412.51;;;12.93;98.39
35507;BME280;36461;52.018;21.036;2023-10-13T08:21:47;100411.09;;;13.07;98.53
35507;BME280;36461;52.018;21.036;2023-10-13T08:24:29;100405.60;;;13.25;98.67
35507;BME280;36461;52.018;21.036;2023-10-13T08:27:20;100405.83;;;13.41;98.35
35507;BME280;36461;52.018;21.036;2023-10-13T08:30:17;100403.84;;;13.59;98.01
35507;BME280;36461;52.018;21.036;2023-10-13T08:32:56;100403.90;;;13.77;97.83
35507;BME280;36461;52.018;21.036;2023-10-13T08:35:28;100399.53;;;13.96;97.31
35507;BME280;36461;52.018;21.036;2023-10-13T08:38:03;100403.42;;;14.14;96.79
35507;BME280;36461;52.018;21.036;2023-10-13T08:40:58;100405.89;;;14.28;96.02
35507;BME280;36461;52.018;21.036;2023-10-13T08:43:50;100400.71;;;14.31;95.36
35507;BME280;36461;52.018;21.036;2023-10-13T08:46:31;100404.80;;;14.40;94.81
35507;BME280;36461;52.018;21.036;2023-10-13T08:49:20;100401.51;;;14.58;94.52
35507;BME280;36461;52.018;21.036;2023-10-13T08:51:53;100402.02;;;14.62;94.27
35507;BME280;36461;52.018;21.036;2023-10-13T08:54:35;100403.52;;;14.64;93.65
35507;BME280;36461;52.018;21.036;2023-10-13T08:57:30;100401.64;;;14.59;93.42
35507;BME280;36461;52.018;21.036;2023-10-13T09:00:02;100404.65;;;14.66;93.30
35507;BME280;36461;52.018;21.036;2023-10-13T09:02:49;100404.27;;;14.74;93.10
35507;BME280;36461;52.018;21.036;2023-10-13T09:05:29;100404.17;;;14.83;93.05
35507;BME280;36461;52.018;21.036;2023-10-13T09:08:10;100400.98;;;14.94;92.76
35507;BME280;36461;52.018;21.036;2023-10-13T09:10:44;100397.39;;;15.04;92.50
35507;BME280;36461;52.018;21.036;2023-10-13T09:13:17;100397.10;;;15.13;92.31
35507;BME280;36461;52.018;21.036;2023-10-13T09:15:49;100398.00;;;15.22;91.86
35507;BME280;36461;52.018;21.036;2023-10-13T09:18:29;100391.92;;;15.32;91.59
35507;BME280;36461;52.018;21.036;2023-10-13T09:21:15;100391.82;;;15.44;91.36
35507;BME280;36461;52.018;21.036;2023-10-13T09:24:02;100391.48;;;15.51;91.20
35507;BME280;36461;52.018;21.036;2023-10-13T09:26:46;100394.71;;;15.58;90.90
35507;BME280;36461;52.018;21.036;2023-10-13T09:29:17;100398.22;;;15.65;90.44
35507;BME280;36461;52.018;21.036;2023-10-13T09:31:48;100398.39;;;15.72;90.29
35507;BME280;36461;52.018;21.036;2023-10-13T09:34:28;100397.81;;;15.80;89.40
35507;BME280;36461;52.018;21.036;2023-10-13T09:37:03;100400.38;;;15.84;89.25
35507;BME280;36461;52.018;21.036;2023-10-13T09:39:32;100393.02;;;15.81;88.25
35507;BME280;36461;52.018;21.036;2023-10-13T09:42:13;100389.33;;;15.85;88.92
35507;BME280;36461;52.018;21.036;2023-10-13T09:44:46;100390.36;;;16.02;88.77
35507;BME280;36461;52.018;21.036;2023-10-13T09:47:28;100387.23;;;16.04;88.07
35507;BME280;36461;52.018;21.036;2023-10-13T09:50:08;100379.40;;;16.11;87.84
35507;BME280;36461;52.018;21.036;2023-10-13T09:52:45;100384.16;;;16.22;87.52
35507;BME280;36461;52.018;21.036;2023-10-13T09:58:52;100373.27;;;16.33;86.98
35507;BME280;36461;52.018;21.036;2023-10-13T10:01:27;100366.91;;;16.37;86.93
35507;BME280;36461;52.018;21.036;2023-10-13T10:04:14;100363.64;;;16.49;86.85
35507;BME280;36461;52.018;21.036;2023-10-13T10:06:56;100356.85;;;16.54;86.36
35507;BME280;36461;52.018;21.036;2023-10-13T10:09:30;100351.01;;;16.53;85.83
35507;BME280;36461;52.018;21.036;2023-10-13T10:17:43;100352.98;;;16.46;85.70
35507;BME280;36461;52.018;21.036;2023-10-13T10:20:12;100352.04;;;16.44;85.78
35507;BME280;36461;52.018;21.036;2023-10-13T10:22:43;100347.66;;;16.38;85.77
35507;BME280;36461;52.018;21.036;2023-10-13T10:25:16;100341.20;;;16.35;85.77
35507;BME280;36461;52.018;21.036;2023-10-13T10:27:56;100331.21;;;16.38;85.99
35507;BME280;36461;52.018;21.036;2023-10-13T10:30:28;100328.33;;;16.43;85.70
35507;BME280;36461;52.018;21.036;2023-10-13T10:32:57;100326.41;;;16.52;86.25
35507;BME280;36461;52.018;21.036;2023-10-13T10:35:35;100319.04;;;16.68;86.10
35507;BME280;36461;52.018;21.036;2023-10-13T10:38:11;100316.54;;;16.80;86.01
35507;BME280;36461;52.018;21.036;2023-10-13T10:40:50;100311.23;;;16.94;85.85
35507;BME280;36461;52.018;21.036;2023-10-13T10:43:20;100313.10;;;17.04;85.69
35507;BME280;36461;52.018;21.036;2023-10-13T10:46:01;100311.72;;;17.15;85.32
35507;BME280;36461;52.018;21.036;2023-10-13T10:48:31;100307.64;;;17.25;85.26
35507;BME280;36461;52.018;21.036;2023-10-13T10:51:03;100305.02;;;17.36;85.11
35507;BME280;36461;52.018;21.036;2023-10-13T10:53:52;100296.89;;;17.49;84.97
35507;BME280;36461;52.018;21.036;2023-10-13T10:56:24;100289.79;;;17.53;85.09
35507;BME280;36461;52.018;21.036;2023-10-13T10:59:06;100279.23;;;17.56;84.99
35507;BME280;36461;52.018;21.036;2023-10-13T11:01:43;100278.16;;;17.52;84.63
35507;BME280;36461;52.018;21.036;2023-10-13T11:04:15;100276.94;;;17.43;84.67
35507;BME280;36461;52.018;21.036;2023-10-13T11:06:52;100273.09;;;17.40;84.60
35507;BME280;36461;52.018;21.036;2023-10-13T11:11:54;100270.88;;;17.53;85.07
35507;BME280;36461;52.018;21.036;2023-10-13T11:14:28;100267.56;;;17.73;85.51
35507;BME280;36461;52.018;21.036;2023-10-13T11:16:59;100266.14;;;17.84;85.16
35507;BME280;36461;52.018;21.036;2023-10-13T11:19:42;100265.65;;;17.84;84.84
35507;BME280;36461;52.018;21.036;2023-10-13T11:22:18;100266.95;;;17.82;84.94
35507;BME280;36461;52.018;21.036;2023-10-13T11:25:24;100264.44;;;17.77;84.82
35507;BME280;36461;52.018;21.036;2023-10-13T11:28:17;100257.95;;;17.75;85.02
35507;BME280;36461;52.018;21.036;2023-10-13T11:30:49;100248.03;;;17.69;85.10
35507;BME280;36461;52.018;21.036;2023-10-13T11:33:19;100242.05;;;17.67;85.14
35507;BME280;36461;52.018;21.036;2023-10-13T11:35:56;100234.84;;;17.56;85.00
35507;BME280;36461;52.018;21.036;2023-10-13T11:38:27;100236.79;;;17.50;85.36
35507;BME280;36461;52.018;21.036;2023-10-13T11:41:03;100236.70;;;17.46;85.44
35507;BME280;36461;52.018;21.036;2023-10-13T11:43:39;100228.29;;;17.46;85.68
35507;BME280;36461;52.018;21.036;2023-10-13T11:46:12;100223.43;;;17.48;85.91
35507;BME280;36461;52.018;21.036;2023-10-13T11:48:45;100216.20;;;17.52;86.24
35507;BME280;36461;52.018;21.036;2023-10-13T11:51:22;100211.59;;;17.53;86.27
35507;BME280;36461;52.018;21.036;2023-10-13T11:54:00;100210.36;;;17.50;86.21
35507;BME280;36461;52.018;21.036;2023-10-13T11:56:28;100211.22;;;17.51;86.27
35507;BME280;36461;52.018;21.036;2023-10-13T11:58:56;100209.46;;;17.53;86.43
35507;BME280;36461;52.018;21.036;2023-10-13T12:01:29;100210.98;;;17.57;86.91
35507;BME280;36461;52.018;21.036;2023-10-13T12:04:16;100212.14;;;17.58;86.93
35507;BME280;36461;52.018;21.036;2023-10-13T12:07:09;100207.65;;;17.60;87.28
35507;BME280;36461;52.018;21.036;2023-10-13T12:09:57;100201.27;;;17.67;87.31
35507;BME280;36461;52.018;21.036;2023-10-13T12:12:26;100201.09;;;17.75;87.30
35507;BME280;36461;52.018;21.036;2023-10-13T12:14:55;100190.33;;;17.76;87.23
35507;BME280;36461;52.018;21.036;2023-10-13T12:17:28;100190.15;;;17.76;86.87
35507;BME280;36461;52.018;21.036;2023-10-13T12:20:04;100187.38;;;17.76;86.93
35507;BME280;36461;52.018;21.036;2023-10-13T12:22:33;100184.75;;;17.78;87.03
35507;BME280;36461;52.018;21.036;2023-10-13T12:25:10;100180.54;;;17.81;87.23
35507;BME280;36461;52.018;21.036;2023-10-13T12:28:02;100180.63;;;17.83;86.82
35507;BME280;36461;52.018;21.036;2023-10-13T12:30:50;100173.60;;;17.77;86.72
35507;BME280;36461;52.018;21.036;2023-10-13T12:33:22;100170.77;;;17.78;87.13
35507;BME280;36461;52.018;21.036;2023-10-13T12:38:37;100159.85;;;17.89;87.35
35507;BME280;36461;52.018;21.036;2023-10-13T12:41:15;100153.27;;;17.97;87.51
35507;BME280;36461;52.018;21.036;2023-10-13T12:44:05;100146.50;;;18.04;87.47
35507;BME280;36461;52.018;21.036;2023-10-13T12:46:53;100140.23;;;18.11;87.40
35507;BME280;36461;52.018;21.036;2023-10-13T12:49:40;100144.97;;;18.14;87.30
35507;BME280;36461;52.018;21.036;2023-10-13T12:52:09;100144.80;;;18.14;87.34
35507;BME280;36461;52.018;21.036;2023-10-13T12:54:56;100148.00;;;18.10;87.26
35507;BME280;36461;52.018;21.036;2023-10-13T12:57:26;100144.06;;;18.06;87.30
35507;BME280;36461;52.018;21.036;2023-10-13T12:59:55;100130.48;;;18.05;87.36
35507;BME280;36461;52.018;21.036;2023-10-13T13:02:24;100119.67;;;18.05;87.24
35507;BME280;36461;52.018;21.036;2023-10-13T13:04:55;100117.38;;;18.05;87.38
35507;BME280;36461;52.018;21.036;2023-10-13T13:07:41;100116.91;;;18.07;87.41
35507;BME280;36461;52.018;21.036;2023-10-13T13:10:15;100119.48;;;18.15;87.77
35507;BME280;36461;52.018;21.036;2023-10-13T13:12:43;100117.95;;;18.25;87.92
35507;BME280;36461;52.018;21.036;2023-10-13T13:15:12;100123.16;;;18.36;87.93
35507;BME280;36461;52.018;21.036;2023-10-13T13:17:40;100126.12;;;18.49;87.98
35507;BME280;36461;52.018;21.036;2023-10-13T13:20:10;100127.13;;;18.62;88.10
35507;BME280;36461;52.018;21.036;2023-10-13T13:22:39;100117.58;;;18.73;87.73
35507;BME280;36461;52.018;21.036;2023-10-13T13:25:08;100110.31;;;18.82;87.59
35507;BME280;36461;52.018;21.036;2023-10-13T13:27:38;100106.52;;;18.86;87.35
35507;BME280;36461;52.018;21.036;2023-10-13T13:30:10;100108.36;;;18.92;87.21
35507;BME280;36461;52.018;21.036;2023-10-13T13:32:41;100110.11;;;18.98;87.12
35507;BME280;36461;52.018;21.036;2023-10-13T13:35:09;100108.50;;;18.98;87.14
35507;BME280;36461;52.018;21.036;2023-10-13T13:37:41;100104.63;;;18.95;87.09
35507;BME280;36461;52.018;21.036;2023-10-13T13:40:13;100099.14;;;18.94;87.06
35507;BME280;36461;52.018;21.036;2023-10-13T13:42:49;100093.15;;;18.92;87.01
35507;BME280;36461;52.018;21.036;2023-10-13T13:45:18;100091.79;;;18.89;86.94
35507;BME280;36461;52.018;21.036;2023-10-13T13:47:50;100089.52;;;18.81;86.73
35507;BME280;36461;52.018;21.036;2023-10-13T13:50:24;100081.41;;;18.76;86.83
35507;BME280;36461;52.018;21.036;2023-10-13T13:52:55;100076.78;;;18.73;87.01